sensor_id;sensor_type;location;lat;lon;timestamp;pressure;altitude;pressure_sealevel;temperature;humidity
42169;BME280;27838;43.858;25.974;2024-01-30T00:00:09;103620.00;;;6.19;51.89
42169;BME280;27838;43.858;25.974;2024-01-30T00:02:36;103624.41;;;6.20;52.29
42169;BME280;27838;43.858;25.974;2024-01-30T00:05:03;103631.78;;;6.28;51.83
42169;BME280;27838;43.858;25.974;2024-01-30T00:07:30;103625.19;;;6.33;51.19
42169;BME280;27838;43.858;25.974;2024-01-30T00:09:56;103630.56;;;6.36;51.89
42169;BME280;27838;43.858;25.974;2024-01-30T00:12:23;103635.16;;;6.40;51.54
42169;BME280;27838;43.858;25.974;2024-01-30T00:14:49;103610.66;;;6.35;50.93
42169;BME280;27838;43.858;25.974;2024-01-30T00:17:16;103625.16;;;6.46;51.53
42169;BME280;27838;43.858;25.974;2024-01-30T00:19:42;103628.94;;;6.51;51.08
42169;BME280;27838;43.858;25.974;2024-01-30T00:22:09;103624.06;;;6.56;51.08
42169;BME280;27838;43.858;25.974;2024-01-30T00:24:35;103625.94;;;6.58;51.15
42169;BME280;27838;43.858;25.974;2024-01-30T00:27:02;103622.56;;;6.59;50.78
42169;BME280;27838;43.858;25.974;2024-01-30T00:29:28;103626.75;;;6.57;50.31
42169;BME280;27838;43.858;25.974;2024-01-30T00:31:59;103624.06;;;6.56;50.70
42169;BME280;27838;43.858;25.974;2024-01-30T00:34:25;103632.63;;;6.55;50.89
42169;BME280;27838;43.858;25.974;2024-01-30T00:36:52;103629.75;;;6.50;50.41
42169;BME280;27838;43.858;25.974;2024-01-30T00:39:19;103628.56;;;6.45;50.74
42169;BME280;27838;43.858;25.974;2024-01-30T00:41:45;103631.16;;;6.45;51.41
42169;BME280;27838;43.858;25.974;2024-01-30T00:44:12;103626.75;;;6.44;51.02
42169;BME280;27838;43.858;25.974;2024-01-30T00:46:38;103618.88;;;6.42;50.55
42169;BME280;27838;43.858;25.974;2024-01-30T00:49:05;103623.28;;;6.43;51.02
42169;BME280;27838;43.858;25.974;2024-01-30T00:51:31;103615.41;;;6.42;51.14
42169;BME280;27838;43.858;25.974;2024-01-30T00:53:58;103619.97;;;6.46;51.07
42169;BME280;27838;43.858;25.974;2024-01-30T00:56:25;103623.50;;;6.47;50.82
42169;BME280;27838;43.858;25.974;2024-01-30T00:58:51;103627.06;;;6.49;49.85
42169;BME280;27838;43.858;25.974;2024-01-30T01:01:18;103621.28;;;6.39;50.87
42169;BME280;27838;43.858;25.974;2024-01-30T01:03:44;103615.81;;;6.35;50.50
42169;BME280;27838;43.858;25.974;2024-01-30T01:06:11;103616.59;;;6.34;50.25
42169;BME280;27838;43.858;25.974;2024-01-30T01:08:37;103614.84;;;6.33;50.30
42169;BME280;27838;43.858;25.974;2024-01-30T01:11:04;103611.06;;;6.28;50.34
42169;BME280;27838;43.858;25.974;2024-01-30T01:13:30;103609.03;;;6.23;50.48
42169;BME280;27838;43.858;25.974;2024-01-30T01:15:57;103609.66;;;6.19;50.03
42169;BME280;27838;43.858;25.974;2024-01-30T01:18:23;103606.88;;;6.16;51.24
42169;BME280;27838;43.858;25.974;2024-01-30T01:20:50;103605.97;;;6.16;50.49
42169;BME280;27838;43.858;25.974;2024-01-30T01:23:16;103596.50;;;6.16;50.83
42169;BME280;27838;43.858;25.974;2024-01-30T01:25:44;103604.38;;;6.18;50.21
42169;BME280;27838;43.858;25.974;2024-01-30T01:28:10;103609.25;;;6.13;50.19
42169;BME280;27838;43.858;25.974;2024-01-30T01:30:37;103605.00;;;6.14;49.79
42169;BME280;27838;43.858;25.974;2024-01-30T01:33:04;103612.25;;;6.19;49.61
42169;BME280;27838;43.858;25.974;2024-01-30T01:35:31;103608.88;;;6.20;48.65
42169;BME280;27838;43.858;25.974;2024-01-30T01:37:58;103602.59;;;6.17;49.05
42169;BME280;27838;43.858;25.974;2024-01-30T01:40:26;103605.25;;;6.18;48.98
42169;BME280;27838;43.858;25.974;2024-01-30T01:42:55;103603.69;;;6.20;48.89
42169;BME280;27838;43.858;25.974;2024-01-30T01:45:22;103599.50;;;6.22;48.37
42169;BME280;27838;43.858;25.974;2024-01-30T01:47:51;103614.72;;;6.31;48.61
42169;BME280;27838;43.858;25.974;2024-01-30T01:50:18;103609.81;;;6.36;47.76
42169;BME280;27838;43.858;25.974;2024-01-30T01:52:47;103610.75;;;6.36;48.42
42169;BME280;27838;43.858;25.974;2024-01-30T01:55:15;103594.78;;;6.30;48.09
42169;BME280;27838;43.858;25.974;2024-01-30T01:57:42;103611.44;;;6.34;48.60
42169;BME280;27838;43.858;25.974;2024-01-30T02:00:10;103612.34;;;6.34;48.47
42169;BME280;27838;43.858;25.974;2024-01-30T02:02:37;103614.84;;;6.33;47.82
42169;BME280;27838;43.858;25.974;2024-01-30T02:05:05;103615.00;;;6.36;48.14
42169;BME280;27838;43.858;25.974;2024-01-30T02:07:32;103612.34;;;6.34;47.64
42169;BME280;27838;43.858;25.974;2024-01-30T02:09:58;103614.22;;;6.37;47.62
42169;BME280;27838;43.858;25.974;2024-01-30T02:12:25;103615.00;;;6.36;47.11
42169;BME280;27838;43.858;25.974;2024-01-30T02:14:51;103605.34;;;6.33;47.93
42169;BME280;27838;43.858;25.974;2024-01-30T02:17:18;103611.44;;;6.34;47.50
42169;BME280;27838;43.858;25.974;2024-01-30T02:19:45;103615.63;;;6.32;47.56
42169;BME280;27838;43.858;25.974;2024-01-30T02:22:12;103611.53;;;6.35;47.72
42169;BME280;27838;43.858;25.974;2024-01-30T02:24:39;103610.34;;;6.30;47.94
42169;BME280;27838;43.858;25.974;2024-01-30T02:27:05;103604.28;;;6.30;47.78
42169;BME280;27838;43.858;25.974;2024-01-30T02:29:32;103609.56;;;6.31;47.25
42169;BME280;27838;43.858;25.974;2024-01-30T02:31:58;103609.66;;;6.33;47.60
42169;BME280;27838;43.858;25.974;2024-01-30T02:34:25;103612.25;;;6.33;47.92
42169;BME280;27838;43.858;25.974;2024-01-30T02:36:51;103612.94;;;6.30;47.76
42169;BME280;27838;43.858;25.974;2024-01-30T02:39:18;103601.78;;;6.31;47.60
42169;BME280;27838;43.858;25.974;2024-01-30T02:41:45;103602.66;;;6.32;47.30
42169;BME280;27838;43.858;25.974;2024-01-30T02:44:11;103584.75;;;6.21;47.09
42169;BME280;27838;43.858;25.974;2024-01-30T02:46:38;103605.16;;;6.30;47.86
42169;BME280;27838;43.858;25.974;2024-01-30T02:49:04;103599.28;;;6.33;47.64
42169;BME280;27838;43.858;25.974;2024-01-30T02:51:31;103601.88;;;6.33;47.49
42169;BME280;27838;43.858;25.974;2024-01-30T02:53:57;103600.19;;;6.33;46.91
42169;BME280;27838;43.858;25.974;2024-01-30T02:56:24;103599.38;;;6.34;47.17
42169;BME280;27838;43.858;25.974;2024-01-30T02:58:51;103593.28;;;6.34;47.50
42169;BME280;27838;43.858;25.974;2024-01-30T03:01:17;103591.78;;;6.37;47.17
42169;BME280;27838;43.858;25.974;2024-01-30T03:03:44;103590.03;;;6.36;47.38
42169;BME280;27838;43.858;25.974;2024-01-30T03:06:10;103587.59;;;6.39;47.16
42169;BME280;27838;43.858;25.974;2024-01-30T03:08:37;103592.72;;;6.38;47.43
42169;BME280;27838;43.858;25.974;2024-01-30T03:11:03;103592.50;;;6.35;46.94
42169;BME280;27838;43.858;25.974;2024-01-30T03:13:30;103591.63;;;6.34;46.26
42169;BME280;27838;43.858;25.974;2024-01-30T03:15:57;103594.28;;;6.36;46.72
42169;BME280;27838;43.858;25.974;2024-01-30T03:18:23;103593.28;;;6.34;46.79
42169;BME280;27838;43.858;25.974;2024-01-30T03:20:50;103586.25;;;6.31;46.74
42169;BME280;27838;43.858;25.974;2024-01-30T03:23:16;103584.22;;;6.27;47.55
42169;BME280;27838;43.858;25.974;2024-01-30T03:25:43;103588.72;;;6.30;46.65
42169;BME280;27838;43.858;25.974;2024-01-30T03:28:09;103587.84;;;6.29;47.00
42169;BME280;27838;43.858;25.974;2024-01-30T03:30:36;103582.66;;;6.29;46.47
42169;BME280;27838;43.858;25.974;2024-01-30T03:33:03;103588.94;;;6.33;47.08
42169;BME280;27838;43.858;25.974;2024-01-30T03:35:29;103586.50;;;6.36;46.10
42169;BME280;27838;43.858;25.974;2024-01-30T03:37:56;103576.13;;;6.36;46.56
42169;BME280;27838;43.858;25.974;2024-01-30T03:40:22;103566.69;;;6.36;46.47
42169;BME280;27838;43.858;25.974;2024-01-30T03:42:49;103567.19;;;6.31;46.67
42169;BME280;27838;43.858;25.974;2024-01-30T03:45:15;103575.97;;;6.33;46.66
42169;BME280;27838;43.858;25.974;2024-01-30T03:47:44;103569.88;;;6.32;46.89
42169;BME280;27838;43.858;25.974;2024-01-30T03:50:11;103573.19;;;6.30;46.80
42169;BME280;27838;43.858;25.974;2024-01-30T03:52:37;103567.03;;;6.28;46.50
42169;BME280;27838;43.858;25.974;2024-01-30T03:55:04;103562.41;;;6.23;46.64
42169;BME280;27838;43.858;25.974;2024-01-30T03:57:31;103572.88;;;6.25;46.99
42169;BME280;27838;43.858;25.974;2024-01-30T03:59:58;103573.50;;;6.21;46.72
42169;BME280;27838;43.858;25.974;2024-01-30T04:02:24;103571.00;;;6.22;46.98
42169;BME280;27838;43.858;25.974;2024-01-30T04:04:51;103574.78;;;6.28;46.87
42169;BME280;27838;43.858;25.974;2024-01-30T04:07:17;103579.16;;;6.29;46.51
42169;BME280;27838;43.858;25.974;2024-01-30T04:09:44;103577.97;;;6.23;46.98
42169;BME280;27838;43.858;25.974;2024-01-30T04:12:10;103579.56;;;6.21;46.35
42169;BME280;27838;43.858;25.974;2024-01-30T04:14:39;103572.59;;;6.20;46.86
42169;BME280;27838;43.858;25.974;2024-01-30T04:17:05;103582.97;;;6.20;46.65
42169;BME280;27838;43.858;25.974;2024-01-30T04:19:32;103581.25;;;6.21;46.41
42169;BME280;27838;43.858;25.974;2024-01-30T04:21:59;103581.38;;;6.22;46.75
42169;BME280;27838;43.858;25.974;2024-01-30T04:24:25;103581.16;;;6.19;46.84
42169;BME280;27838;43.858;25.974;2024-01-30T04:26:52;103583.03;;;6.22;46.31
42169;BME280;27838;43.858;25.974;2024-01-30T04:29:18;103578.88;;;6.24;46.60
42169;BME280;27838;43.858;25.974;2024-01-30T04:31:45;103590.91;;;6.23;46.62
42169;BME280;27838;43.858;25.974;2024-01-30T04:34:11;103596.09;;;6.23;46.27
42169;BME280;27838;43.858;25.974;2024-01-30T04:36:38;103596.41;;;6.28;46.17
42169;BME280;27838;43.858;25.974;2024-01-30T04:39:04;103592.91;;;6.28;46.29
42169;BME280;27838;43.858;25.974;2024-01-30T04:41:31;103593.09;;;6.31;46.94
42169;BME280;27838;43.858;25.974;2024-01-30T04:43:59;103583.75;;;6.33;46.43
42169;BME280;27838;43.858;25.974;2024-01-30T04:46:25;103583.91;;;6.36;46.59
42169;BME280;27838;43.858;25.974;2024-01-30T04:48:52;103585.72;;;6.37;46.32
42169;BME280;27838;43.858;25.974;2024-01-30T04:51:18;103590.69;;;6.34;45.84
42169;BME280;27838;43.858;25.974;2024-01-30T04:53:45;103594.00;;;6.31;46.15
42169;BME280;27838;43.858;25.974;2024-01-30T04:56:11;103595.88;;;6.34;46.24
42169;BME280;27838;43.858;25.974;2024-01-30T04:58:38;103586.25;;;6.31;46.20
42169;BME280;27838;43.858;25.974;2024-01-30T05:01:04;103588.63;;;6.28;46.63
42169;BME280;27838;43.858;25.974;2024-01-30T05:03:34;103593.59;;;6.25;46.45
42169;BME280;27838;43.858;25.974;2024-01-30T05:06:01;103587.84;;;6.16;46.55
42169;BME280;27838;43.858;25.974;2024-01-30T05:08:28;103575.88;;;6.04;46.64
42169;BME280;27838;43.858;25.974;2024-01-30T05:10:55;103599.91;;;6.15;46.09
42169;BME280;27838;43.858;25.974;2024-01-30T05:13:21;103587.06;;;6.17;46.38
42169;BME280;27838;43.858;25.974;2024-01-30T05:15:48;103597.41;;;6.17;46.87
42169;BME280;27838;43.858;25.974;2024-01-30T05:18:14;103591.31;;;6.16;46.07
42169;BME280;27838;43.858;25.974;2024-01-30T05:20:41;103599.50;;;6.22;46.65
42169;BME280;27838;43.858;25.974;2024-01-30T05:23:08;103595.31;;;6.24;46.61
42169;BME280;27838;43.858;25.974;2024-01-30T05:25:34;103603.38;;;6.29;46.39
42169;BME280;27838;43.858;25.974;2024-01-30T05:28:01;103603.19;;;6.26;46.86
42169;BME280;27838;43.858;25.974;2024-01-30T05:30:27;103604.94;;;6.27;46.35
42169;BME280;27838;43.858;25.974;2024-01-30T05:32:54;103599.00;;;6.28;46.24
42169;BME280;27838;43.858;25.974;2024-01-30T05:35:21;103599.50;;;6.22;46.99
42169;BME280;27838;43.858;25.974;2024-01-30T05:37:50;103601.41;;;6.12;47.57
42169;BME280;27838;43.858;25.974;2024-01-30T05:40:17;103602.59;;;6.03;47.69
42169;BME280;27838;43.858;25.974;2024-01-30T05:42:43;103604.00;;;5.98;47.77
42169;BME280;27838;43.858;25.974;2024-01-30T05:45:10;103593.59;;;5.85;48.61
42169;BME280;27838;43.858;25.974;2024-01-30T05:47:36;103605.44;;;5.95;48.09
42169;BME280;27838;43.858;25.974;2024-01-30T05:50:03;103615.13;;;5.97;48.09
42169;BME280;27838;43.858;25.974;2024-01-30T05:52:30;103615.22;;;5.99;48.62
42169;BME280;27838;43.858;25.974;2024-01-30T05:54:56;103616.22;;;6.01;48.20
42169;BME280;27838;43.858;25.974;2024-01-30T05:57:23;103614.81;;;5.93;47.89
42169;BME280;27838;43.858;25.974;2024-01-30T05:59:50;103623.25;;;5.90;47.65
42169;BME280;27838;43.858;25.974;2024-01-30T06:02:17;103621.78;;;5.80;47.87
42169;BME280;27838;43.858;25.974;2024-01-30T06:04:43;103622.78;;;5.82;48.67
42169;BME280;27838;43.858;25.974;2024-01-30T06:07:10;103618.59;;;5.84;47.78
42169;BME280;27838;43.858;25.974;2024-01-30T06:09:37;103626.25;;;5.83;48.15
42169;BME280;27838;43.858;25.974;2024-01-30T06:12:05;103628.72;;;5.81;48.17
42169;BME280;27838;43.858;25.974;2024-01-30T06:14:31;103622.88;;;5.84;48.13
42169;BME280;27838;43.858;25.974;2024-01-30T06:16:59;103627.13;;;5.83;48.44
42169;BME280;27838;43.858;25.974;2024-01-30T06:19:25;103630.31;;;5.79;48.33
42169;BME280;27838;43.858;25.974;2024-01-30T06:21:52;103642.50;;;5.80;48.02
42169;BME280;27838;43.858;25.974;2024-01-30T06:24:18;103637.31;;;5.80;48.40
42169;BME280;27838;43.858;25.974;2024-01-30T06:26:45;103647.66;;;5.80;48.16
42169;BME280;27838;43.858;25.974;2024-01-30T06:29:12;103640.69;;;5.79;47.91
42169;BME280;27838;43.858;25.974;2024-01-30T06:31:43;103631.81;;;5.76;47.51
42169;BME280;27838;43.858;25.974;2024-01-30T06:34:09;103642.50;;;5.80;47.68
42169;BME280;27838;43.858;25.974;2024-01-30T06:36:37;103639.09;;;5.81;47.90
42169;BME280;27838;43.858;25.974;2024-01-30T06:39:04;103633.69;;;5.78;47.62
42169;BME280;27838;43.858;25.974;2024-01-30T06:41:30;103646.84;;;5.81;48.01
42169;BME280;27838;43.858;25.974;2024-01-30T06:43:57;103642.28;;;5.77;47.68
42169;BME280;27838;43.858;25.974;2024-01-30T06:46:24;103649.53;;;5.83;47.74
42169;BME280;27838;43.858;25.974;2024-01-30T06:48:50;103646.06;;;5.82;47.40
42169;BME280;27838;43.858;25.974;2024-01-30T06:51:17;103653.00;;;5.83;47.06
42169;BME280;27838;43.858;25.974;2024-01-30T06:53:43;103653.31;;;5.75;47.42
42169;BME280;27838;43.858;25.974;2024-01-30T06:56:10;103655.22;;;5.77;47.24
42169;BME280;27838;43.858;25.974;2024-01-30T06:58:36;103645.84;;;5.79;46.98
42169;BME280;27838;43.858;25.974;2024-01-30T07:01:03;103649.44;;;5.81;46.71
42169;BME280;27838;43.858;25.974;2024-01-30T07:03:29;103653.84;;;5.82;46.70
42169;BME280;27838;43.858;25.974;2024-01-30T07:05:56;103640.88;;;5.82;46.68
42169;BME280;27838;43.858;25.974;2024-01-30T07:08:23;103646.06;;;5.82;46.42
42169;BME280;27838;43.858;25.974;2024-01-30T07:10:49;103651.25;;;5.82;47.12
42169;BME280;27838;43.858;25.974;2024-01-30T07:13:16;103665.06;;;5.83;46.47
42169;BME280;27838;43.858;25.974;2024-01-30T07:15:42;103657.47;;;5.73;46.52
42169;BME280;27838;43.858;25.974;2024-01-30T07:18:09;103647.41;;;5.51;47.67
42169;BME280;27838;43.858;25.974;2024-01-30T07:20:36;103656.16;;;5.53;47.29
42169;BME280;27838;43.858;25.974;2024-01-30T07:23:03;103653.97;;;5.59;47.71
42169;BME280;27838;43.858;25.974;2024-01-30T07:25:30;103646.22;;;5.59;47.10
42169;BME280;27838;43.858;25.974;2024-01-30T07:27:56;103663.94;;;5.66;47.13
42169;BME280;27838;43.858;25.974;2024-01-30T07:30:23;103658.59;;;5.63;47.82
42169;BME280;27838;43.858;25.974;2024-01-30T07:32:49;103644.53;;;5.59;46.87
42169;BME280;27838;43.858;25.974;2024-01-30T07:35:16;103647.19;;;5.47;47.14
42169;BME280;27838;43.858;25.974;2024-01-30T07:37:43;103650.22;;;5.28;48.14
42169;BME280;27838;43.858;25.974;2024-01-30T07:40:09;103647.03;;;5.33;48.24
42169;BME280;27838;43.858;25.974;2024-01-30T07:42:36;103648.69;;;5.44;47.68
42169;BME280;27838;43.858;25.974;2024-01-30T07:45:02;103655.47;;;5.55;47.84
42169;BME280;27838;43.858;25.974;2024-01-30T07:47:29;103648.00;;;5.60;47.35
42169;BME280;27838;43.858;25.974;2024-01-30T07:49:56;103648.41;;;5.66;47.58
42169;BME280;27838;43.858;25.974;2024-01-30T07:52:22;103644.44;;;5.71;47.92
42169;BME280;27838;43.858;25.974;2024-01-30T07:54:49;103654.22;;;5.89;47.92
42169;BME280;27838;43.858;25.974;2024-01-30T07:57:16;103657.03;;;5.92;47.09
42169;BME280;27838;43.858;25.974;2024-01-30T07:59:44;103649.25;;;5.92;46.57
42169;BME280;27838;43.858;25.974;2024-01-30T08:02:12;103646.78;;;5.93;46.36
42169;BME280;27838;43.858;25.974;2024-01-30T08:04:39;103638.69;;;5.89;47.05
42169;BME280;27838;43.858;25.974;2024-01-30T08:07:05;103650.97;;;5.91;46.87
42169;BME280;27838;43.858;25.974;2024-01-30T08:09:32;103644.81;;;6.02;46.98
42169;BME280;27838;43.858;25.974;2024-01-30T08:11:58;103647.41;;;6.16;46.74
42169;BME280;27838;43.858;25.974;2024-01-30T08:14:25;103640.13;;;6.23;46.42
42169;BME280;27838;43.858;25.974;2024-01-30T08:16:52;103649.97;;;5.89;47.42
42169;BME280;27838;43.858;25.974;2024-01-30T08:19:21;103638.50;;;5.85;46.95
42169;BME280;27838;43.858;25.974;2024-01-30T08:21:47;103646.63;;;6.03;47.45
42169;BME280;27838;43.858;25.974;2024-01-30T08:24:14;103650.31;;;6.20;47.48
42169;BME280;27838;43.858;25.974;2024-01-30T08:26:40;103638.94;;;6.45;46.07
42169;BME280;27838;43.858;25.974;2024-01-30T08:29:07;103647.19;;;6.53;46.07
42169;BME280;27838;43.858;25.974;2024-01-30T08:31:33;103648.81;;;6.79;45.72
42169;BME280;27838;43.858;25.974;2024-01-30T08:34:00;103647.19;;;6.94;45.22
42169;BME280;27838;43.858;25.974;2024-01-30T08:36:27;103642.59;;;7.18;45.21
42169;BME280;27838;43.858;25.974;2024-01-30T08:38:53;103648.63;;;7.32;44.50
42169;BME280;27838;43.858;25.974;2024-01-30T08:41:20;103646.31;;;7.52;44.38
42169;BME280;27838;43.858;25.974;2024-01-30T08:43:46;103645.16;;;7.77;44.09
42169;BME280;27838;43.858;25.974;2024-01-30T08:46:13;103652.41;;;7.97;43.52
42169;BME280;27838;43.858;25.974;2024-01-30T08:48:43;103654.56;;;8.04;42.76
42169;BME280;27838;43.858;25.974;2024-01-30T08:51:10;103639.06;;;8.06;42.82
42169;BME280;27838;43.858;25.974;2024-01-30T08:53:36;103648.25;;;8.16;41.93
42169;BME280;27838;43.858;25.974;2024-01-30T08:56:03;103641.06;;;8.26;42.27
42169;BME280;27838;43.858;25.974;2024-01-30T08:58:30;103649.72;;;8.42;42.63
42169;BME280;27838;43.858;25.974;2024-01-30T09:00:57;103644.34;;;8.54;42.33
42169;BME280;27838;43.858;25.974;2024-01-30T09:03:23;103639.91;;;8.67;41.86
42169;BME280;27838;43.858;25.974;2024-01-30T09:05:50;103638.38;;;8.87;41.59
42169;BME280;27838;43.858;25.974;2024-01-30T09:08:17;103639.00;;;9.00;41.52
42169;BME280;27838;43.858;25.974;2024-01-30T09:10:43;103630.25;;;8.98;41.43
42169;BME280;27838;43.858;25.974;2024-01-30T09:13:10;103634.66;;;8.99;40.92
42169;BME280;27838;43.858;25.974;2024-01-30T09:15:37;103635.34;;;8.96;41.04
42169;BME280;27838;43.858;25.974;2024-01-30T09:18:04;103623.56;;;9.03;40.98
42169;BME280;27838;43.858;25.974;2024-01-30T09:20:30;103610.66;;;9.04;41.06
42169;BME280;27838;43.858;25.974;2024-01-30T09:22:57;103623.25;;;9.13;40.99
42169;BME280;27838;43.858;25.974;2024-01-30T09:25:23;103619.34;;;9.21;40.99
42169;BME280;27838;43.858;25.974;2024-01-30T09:27:50;103619.66;;;9.27;40.81
42169;BME280;27838;43.858;25.974;2024-01-30T09:30:17;103623.38;;;9.33;40.83
42169;BME280;27838;43.858;25.974;2024-01-30T09:32:43;103606.63;;;9.44;40.83
42169;BME280;27838;43.858;25.974;2024-01-30T09:35:10;103610.38;;;9.67;40.08
42169;BME280;27838;43.858;25.974;2024-01-30T09:37:36;103615.59;;;9.85;40.47
42169;BME280;27838;43.858;25.974;2024-01-30T09:40:03;103612.09;;;9.85;39.45
42169;BME280;27838;43.858;25.974;2024-01-30T09:42:34;103610.75;;;9.75;39.59
42169;BME280;27838;43.858;25.974;2024-01-30T09:45:03;103607.25;;;9.92;39.44
42169;BME280;27838;43.858;25.974;2024-01-30T09:47:40;103604.59;;;10.09;39.31
42169;BME280;27838;43.858;25.974;2024-01-30T09:50:08;103603.56;;;10.05;38.88
42169;BME280;27838;43.858;25.974;2024-01-30T09:52:35;103595.34;;;10.15;38.91
42169;BME280;27838;43.858;25.974;2024-01-30T09:55:03;103603.81;;;10.11;38.49
42169;BME280;27838;43.858;25.974;2024-01-30T09:57:29;103604.50;;;10.25;38.74
42169;BME280;27838;43.858;25.974;2024-01-30T09:59:56;103605.56;;;10.47;38.63
42169;BME280;27838;43.858;25.974;2024-01-30T10:02:23;103595.13;;;10.47;38.23
42169;BME280;27838;43.858;25.974;2024-01-30T10:04:51;103600.53;;;10.51;38.07
42169;BME280;27838;43.858;25.974;2024-01-30T10:07:18;103589.00;;;10.46;38.22
42169;BME280;27838;43.858;25.974;2024-01-30T10:09:46;103592.38;;;10.44;38.14
42169;BME280;27838;43.858;25.974;2024-01-30T10:12:13;103581.31;;;10.49;37.88
42169;BME280;27838;43.858;25.974;2024-01-30T10:14:40;103581.81;;;10.60;37.51
42169;BME280;27838;43.858;25.974;2024-01-30T10:17:11;103577.47;;;10.61;37.54
42169;BME280;27838;43.858;25.974;2024-01-30T10:19:39;103576.31;;;10.73;37.34
42169;BME280;27838;43.858;25.974;2024-01-30T10:22:06;103575.38;;;10.71;37.64
42169;BME280;27838;43.858;25.974;2024-01-30T10:24:34;103571.28;;;10.78;37.28
42169;BME280;27838;43.858;25.974;2024-01-30T10:27:00;103576.47;;;10.76;37.88
42169;BME280;27838;43.858;25.974;2024-01-30T10:29:28;103572.59;;;10.88;37.18
42169;BME280;27838;43.858;25.974;2024-01-30T10:32:01;103566.69;;;10.92;36.75
42169;BME280;27838;43.858;25.974;2024-01-30T10:34:29;103567.16;;;10.83;37.83
42169;BME280;27838;43.858;25.974;2024-01-30T10:37:09;103568.88;;;11.02;37.30
42169;BME280;27838;43.858;25.974;2024-01-30T10:39:40;103565.84;;;11.12;36.68
42169;BME280;27838;43.858;25.974;2024-01-30T10:42:11;103558.38;;;11.20;35.63
42169;BME280;27838;43.858;25.974;2024-01-30T10:44:57;103554.25;;;11.27;35.87
42169;BME280;27838;43.858;25.974;2024-01-30T10:47:27;103554.59;;;11.13;35.50
42169;BME280;27838;43.858;25.974;2024-01-30T10:49:55;103551.56;;;11.04;35.52
42169;BME280;27838;43.858;25.974;2024-01-30T10:52:23;103547.63;;;11.14;36.06
42169;BME280;27838;43.858;25.974;2024-01-30T10:54:52;103545.56;;;11.26;35.36
42169;BME280;27838;43.858;25.974;2024-01-30T10:57:18;103547.13;;;11.23;34.74
42169;BME280;27838;43.858;25.974;2024-01-30T10:59:46;103536.56;;;11.20;35.39
42169;BME280;27838;43.858;25.974;2024-01-30T11:02:14;103528.44;;;11.33;34.55
42169;BME280;27838;43.858;25.974;2024-01-30T11:04:41;103527.13;;;11.44;34.62
42169;BME280;27838;43.858;25.974;2024-01-30T11:07:18;103529.81;;;11.46;34.52
42169;BME280;27838;43.858;25.974;2024-01-30T11:09:54;103529.31;;;11.12;35.14
42169;BME280;27838;43.858;25.974;2024-01-30T11:12:26;103525.06;;;10.95;35.73
42169;BME280;27838;43.858;25.974;2024-01-30T11:15:13;103524.16;;;10.73;35.83
42169;BME280;27838;43.858;25.974;2024-01-30T11:20:10;103518.81;;;10.51;36.30
42169;BME280;27838;43.858;25.974;2024-01-30T11:22:37;103522.75;;;10.43;36.67
42169;BME280;27838;43.858;25.974;2024-01-30T11:25:04;103515.34;;;9.95;36.23
42169;BME280;27838;43.858;25.974;2024-01-30T11:27:30;103518.63;;;9.73;36.66
42169;BME280;27838;43.858;25.974;2024-01-30T11:30:02;103515.78;;;9.50;36.31
42169;BME280;27838;43.858;25.974;2024-01-30T11:32:29;103521.47;;;9.07;37.24
42169;BME280;27838;43.858;25.974;2024-01-30T11:34:55;103520.84;;;8.78;37.35
42169;BME280;27838;43.858;25.974;2024-01-30T11:37:25;103514.22;;;8.67;38.04
42169;BME280;27838;43.858;25.974;2024-01-30T11:39:53;103505.44;;;8.65;38.55
42169;BME280;27838;43.858;25.974;2024-01-30T11:42:23;103505.41;;;8.81;38.45
42169;BME280;27838;43.858;25.974;2024-01-30T11:44:51;103499.75;;;9.06;38.08
42169;BME280;27838;43.858;25.974;2024-01-30T11:47:17;103503.03;;;9.20;38.42
42169;BME280;27838;43.858;25.974;2024-01-30T11:49:44;103495.38;;;9.23;38.15
42169;BME280;27838;43.858;25.974;2024-01-30T11:52:11;103491.59;;;9.35;37.08
42169;BME280;27838;43.858;25.974;2024-01-30T11:54:39;103500.41;;;9.37;36.96
42169;BME280;27838;43.858;25.974;2024-01-30T11:57:06;103496.19;;;9.22;36.79
42169;BME280;27838;43.858;25.974;2024-01-30T11:59:33;103503.00;;;9.02;36.99
42169;BME280;27838;43.858;25.974;2024-01-30T12:01:59;103496.94;;;9.02;37.25
42169;BME280;27838;43.858;25.974;2024-01-30T12:04:29;103480.56;;;9.04;37.43
42169;BME280;27838;43.858;25.974;2024-01-30T12:06:56;103482.28;;;9.04;37.08
42169;BME280;27838;43.858;25.974;2024-01-30T12:09:22;103478.00;;;8.88;36.80
42169;BME280;27838;43.858;25.974;2024-01-30T12:11:49;103475.50;;;8.90;37.19
42169;BME280;27838;43.858;25.974;2024-01-30T12:14:16;103476.75;;;8.98;36.42
42169;BME280;27838;43.858;25.974;2024-01-30T12:16:48;103471.91;;;8.87;36.45
42169;BME280;27838;43.858;25.974;2024-01-30T12:19:24;103471.31;;;8.59;36.02
42169;BME280;27838;43.858;25.974;2024-01-30T12:21:57;103462.28;;;8.36;37.20
42169;BME280;27838;43.858;25.974;2024-01-30T12:24:28;103470.94;;;8.36;37.46
42169;BME280;27838;43.858;25.974;2024-01-30T12:26:59;103471.31;;;8.59;36.69
42169;BME280;27838;43.858;25.974;2024-01-30T12:29:25;103464.59;;;8.80;36.55
42169;BME280;27838;43.858;25.974;2024-01-30T12:31:55;103461.81;;;8.94;36.99
42169;BME280;27838;43.858;25.974;2024-01-30T12:34:24;103452.97;;;9.08;36.20
42169;BME280;27838;43.858;25.974;2024-01-30T12:36:51;103447.59;;;9.21;36.00
42169;BME280;27838;43.858;25.974;2024-01-30T12:39:17;103449.81;;;9.32;36.07
42169;BME280;27838;43.858;25.974;2024-01-30T12:41:44;103443.22;;;9.38;35.54
42169;BME280;27838;43.858;25.974;2024-01-30T12:44:11;103454.94;;;9.48;35.22
42169;BME280;27838;43.858;25.974;2024-01-30T12:46:39;103443.56;;;9.46;35.26
42169;BME280;27838;43.858;25.974;2024-01-30T12:49:06;103446.63;;;9.37;34.52